Wing, AL (36483)

10:50 AM CDT on June 02, 2015 (GMT -0500)
RAWS | | Change Station
CLOSE
Current Station
Personal Weather Station
Location: Wing, AL
Elevation: 274 ft
Nearby Weather Stations

Elev 274 ft 31.09 °N, 86.55 °W | Updated 1 hour ago

Partly Cloudy
Partly Cloudy
77 °F
Feels Like 79 °F
N
1
Wind Variable Wind from ENE
Gusts 5.0 mph

Today
High -- | Low -- °F
--% Chance of Precip.
Yesterday
High -- | Low -- °F
Precip. -- in
5:42 AM 7:45 PM
Full, 100% visible
Pressure 30.03 in
Visibility 10.0 miles
Clouds Few 2200 ft
Scattered Clouds 2900 ft
Heat Index 79 °F
Dew Point 70 °F
Humidity 79%
Rainfall in
Snow Depth Not available.
UV 9 out of 12
Pollen 4.00 out of 12
Air Quality Not available.
Flu Activity Sporadic
SPECI K79J 021545Z AUTO 10003KT 10SM FEW022 SCT029 29/20 A3003 RMK AO2

More Conditions Fewer Conditions

Pressure 30.03 in
Visibility 10.0 miles
Clouds Few 2200 ft
Scattered Clouds 2900 ft
Heat Index 79 °F
Dew Point 70 °F
Humidity 79%
Rainfall in
Snow Depth Not available.
UV 9 out of 12
Pollen 4.00 out of 12
Air Quality Not available.
Flu Activity Sporadic
SPECI K79J 021545Z AUTO 10003KT 10SM FEW022 SCT029 29/20 A3003 RMK AO2

More Conditions Fewer Conditions

10-Day Weather Forecast

Almanac

Astronomy

Jun. 02, 2015 Rise Set
Actual Time
Civil Twilight
Nautical Twilight
Astronomical Twilight
Moon
Length of Visible Light
Length of Day
Tomorrow will be .
, % of the Moon is Illuminated

Today's Extremes

State Highs State Lows

Community

WunderPhotos

Upload Photos

1,825,966 photos uploaded!

WunderBlogs® & News

Nearby

Air Quality

  Air Quality AQ Index Pollutant
Not available.

Snow Depth

Station Depth Elevation

Earthquake Activity

City Distance Mag. Time & Date
Minimum magnitude displayed is 2.5.

Coastal Water Temperatures

Place Temperature

Stations

Nearby Weather Stations

Station Location Temp. Windchill Dew Point Humidity Wind Precip. Elev Updated Type